Time;durP1;ratioP1;P1;durP2;ratioP2;P2;SDS_P1;SDS_P2;PMS_P1;PMS_P2;Temp;Humidity;BMP_temperature;BMP_pressure;BME280_temperature;BME280_humidity;BME280_pressure;Samples;Min_cycle;Max_cycle;Signal;HPM_P1;HPM_P2
2023/12/12 00:00:36;;;;;;;10.77;2.53;;;6.60;99.90;;;;;;4990277;28;40014;-82
2023/12/12 00:03:03;;;;;;;10.67;4.10;;;6.50;99.90;;;;;;4988230;28;40494;-83
2023/12/12 00:05:29;;;;;;;9.77;3.30;;;6.50;99.90;;;;;;4972466;28;38720;-83
2023/12/12 00:07:56;;;;;;;12.90;2.47;;;6.40;99.90;;;;;;4970748;28;36619;-82
2023/12/12 00:10:22;;;;;;;9.30;3.70;;;6.30;99.90;;;;;;4971210;28;37955;-83
2023/12/12 00:12:48;;;;;;;7.03;3.43;;;6.30;99.90;;;;;;4992390;28;40424;-82
2023/12/12 00:15:16;;;;;;;12.67;3.30;;;6.20;99.90;;;;;;4965463;28;37284;-83
2023/12/12 00:17:43;;;;;;;6.17;2.93;;;6.10;99.90;;;;;;4971194;28;37217;-82
2023/12/12 00:20:10;;;;;;;11.33;3.17;;;6.10;99.90;;;;;;4955007;28;37728;-81
2023/12/12 00:22:39;;;;;;;9.00;3.03;;;6.00;99.90;;;;;;4968247;28;37953;-82
2023/12/12 00:25:06;;;;;;;8.20;3.60;;;6.10;99.90;;;;;;4989927;28;39795;-82
2023/12/12 00:27:32;;;;;;;11.00;3.50;;;6.10;99.90;;;;;;4999712;28;37952;-83
2023/12/12 00:29:58;;;;;;;9.73;3.70;;;6.10;99.90;;;;;;4984885;28;39305;-83
2023/12/12 00:32:24;;;;;;;9.50;4.33;;;6.20;99.90;;;;;;4965035;28;38045;-82
2023/12/12 00:34:51;;;;;;;8.10;2.93;;;6.20;99.90;;;;;;4985774;28;37288;-82
2023/12/12 00:37:17;;;;;;;11.67;3.83;;;6.30;99.90;;;;;;4967326;28;37188;-83
2023/12/12 00:39:43;;;;;;;10.10;3.10;;;6.40;99.90;;;;;;4967067;28;38853;-83
2023/12/12 00:42:10;;;;;;;9.77;3.80;;;6.40;99.90;;;;;;4961253;28;38405;-83
2023/12/12 00:44:36;;;;;;;12.03;4.30;;;6.50;99.90;;;;;;4979462;28;38322;-83
2023/12/12 00:47:05;;;;;;;11.10;3.80;;;6.50;99.90;;;;;;4988299;28;38777;-83
2023/12/12 00:49:33;;;;;;;14.87;4.80;;;6.50;99.90;;;;;;4989396;28;39053;-83
2023/12/12 00:51:59;;;;;;;7.90;4.87;;;6.50;99.90;;;;;;4967182;28;37646;-83
2023/12/12 00:54:29;;;;;;;10.83;4.43;;;6.50;99.90;;;;;;4975815;28;38542;-82
2023/12/12 00:57:02;;;;;;;14.30;6.13;;;6.50;99.90;;;;;;4979498;28;36326;-83
2023/12/12 00:59:28;;;;;;;;;;;6.50;99.90;;;;;;4990019;28;49423;-83
2023/12/12 01:01:54;;;;;;;9.90;4.60;;;6.40;99.90;;;;;;4959702;28;37674;-83
2023/12/12 01:04:20;;;;;;;7.97;4.30;;;6.40;99.90;;;;;;4965219;28;37346;-83
2023/12/12 01:06:47;;;;;;;10.03;4.57;;;6.30;99.90;;;;;;4989410;28;36076;-83
2023/12/12 01:09:13;;;;;;;10.83;4.33;;;6.10;99.90;;;;;;4985735;28;37862;-82
2023/12/12 01:11:39;;;;;;;11.20;4.53;;;6.00;99.90;;;;;;4977141;28;38256;-83
2023/12/12 01:14:16;;;;;;;13.63;5.00;;;5.90;99.90;;;;;;4976089;28;38342;-83
2023/12/12 01:16:43;;;;;;;11.63;5.40;;;5.90;99.90;;;;;;4968909;28;36991;-82
2023/12/12 01:19:09;;;;;;;11.23;5.53;;;5.80;99.90;;;;;;4968973;28;38858;-83
2023/12/12 01:21:35;;;;;;;14.33;5.57;;;5.70;99.90;;;;;;4972696;28;39459;-82
2023/12/12 01:24:02;;;;;;;13.87;6.13;;;5.60;99.90;;;;;;4960856;28;37349;-83
2023/12/12 01:26:28;;;;;;;15.23;5.77;;;5.50;99.90;;;;;;4973151;28;38439;-83
2023/12/12 01:28:55;;;;;;;14.97;6.97;;;5.50;99.90;;;;;;4966916;28;38555;-82
2023/12/12 01:31:27;;;;;;;14.47;5.37;;;5.40;99.90;;;;;;4966622;28;40896;-83
2023/12/12 01:33:53;;;;;;;14.93;6.45;;;5.40;99.90;;;;;;4989398;28;39495;-83
2023/12/12 01:36:19;;;;;;;17.70;6.43;;;5.40;99.90;;;;;;4967200;28;37021;-82
2023/12/12 01:38:50;;;;;;;16.20;6.93;;;5.20;99.90;;;;;;4974850;28;37661;-83
2023/12/12 01:41:16;;;;;;;17.00;6.90;;;5.20;99.90;;;;;;4983334;28;39991;-83
2023/12/12 01:43:43;;;;;;;18.30;6.47;;;5.20;99.90;;;;;;4986235;28;38896;-83
2023/12/12 01:46:16;;;;;;;16.13;7.30;;;5.20;99.90;;;;;;4979085;28;37139;-83
2023/12/12 01:48:42;;;;;;;13.90;6.85;;;5.20;99.90;;;;;;4979340;28;38512;-82
2023/12/12 01:51:15;;;;;;;15.83;8.43;;;5.20;99.90;;;;;;4980954;28;37830;-82
2023/12/12 01:53:50;;;;;;;20.88;8.20;;;5.10;99.90;;;;;;4967834;28;38556;-83
2023/12/12 01:56:17;;;;;;;31.10;11.90;;;5.10;99.90;;;;;;4968309;28;38256;-82
2023/12/12 01:58:48;;;;;;;32.07;13.23;;;5.20;99.90;;;;;;4973048;28;38068;-83
2023/12/12 02:06:40;;;;;;;45.87;18.53;;;5.50;99.90;;;;;;4991540;28;20050;-81
2023/12/12 02:09:07;;;;;;;51.10;22.23;;;5.70;99.90;;;;;;4978071;28;38211;-81
2023/12/12 02:11:43;;;;;;;37.87;16.37;;;5.70;99.90;;;;;;4960019;28;38844;-81
2023/12/12 02:14:16;;;;;;;53.10;22.30;;;5.80;99.90;;;;;;4972609;28;38134;-82
2023/12/12 02:16:42;;;;;;;60.53;22.63;;;5.90;99.90;;;;;;4977279;28;37135;-81
2023/12/12 02:19:09;;;;;;;45.47;20.30;;;5.90;99.90;;;;;;4972720;28;38868;-81
2023/12/12 02:21:41;;;;;;;40.43;19.73;;;5.90;99.90;;;;;;4978941;28;37702;-81
2023/12/12 02:24:22;;;;;;;51.07;21.60;;;6.00;99.90;;;;;;5004016;28;40158;-81
2023/12/12 02:26:48;;;;;;;59.10;25.93;;;6.00;99.90;;;;;;4982207;28;37977;-83
2023/12/12 02:29:17;;;;;;;48.70;24.73;;;6.00;99.90;;;;;;4981388;28;38781;-82
2023/12/12 02:31:43;;;;;;;55.47;22.10;;;6.00;99.90;;;;;;4993920;28;39057;-82
2023/12/12 02:34:10;;;;;;;66.83;26.73;;;5.90;99.90;;;;;;4990028;28;38183;-81
2023/12/12 02:36:36;;;;;;;37.57;18.33;;;5.80;99.90;;;;;;4994085;28;37809;-82
2023/12/12 02:39:03;;;;;;;67.00;24.47;;;5.70;99.90;;;;;;4998331;28;40317;-81
2023/12/12 02:41:29;;;;;;;46.43;20.17;;;5.70;99.90;;;;;;4976709;28;38873;-82
2023/12/12 02:43:55;;;;;;;55.90;23.20;;;5.70;99.90;;;;;;4990944;28;40440;-82
2023/12/12 02:46:22;;;;;;;61.97;22.77;;;5.60;99.90;;;;;;4995255;28;38944;-82
2023/12/12 02:48:48;;;;;;;37.00;18.13;;;5.60;99.90;;;;;;4992450;28;37719;-82
2023/12/12 02:51:15;;;;;;;52.70;20.10;;;5.50;99.90;;;;;;4975948;28;38929;-80
2023/12/12 02:53:42;;;;;;;56.53;24.53;;;5.50;99.90;;;;;;4979924;28;38247;-81
2023/12/12 02:56:10;;;;;;;50.73;22.07;;;5.40;99.90;;;;;;4959194;28;35561;-80
2023/12/12 02:58:43;;;;;;;60.50;24.40;;;5.30;99.90;;;;;;4980731;28;37479;-81
2023/12/12 03:01:13;;;;;;;69.77;26.67;;;5.40;99.90;;;;;;4970778;28;38051;-81
2023/12/12 03:03:45;;;;;;;64.57;23.27;;;5.50;99.90;;;;;;4987133;28;40472;-81
2023/12/12 03:06:13;;;;;;;67.18;23.30;;;5.70;99.90;;;;;;4956468;28;38384;-80
2023/12/12 03:08:42;;;;;;;68.37;26.47;;;5.80;99.90;;;;;;4988791;28;40233;-81
2023/12/12 03:11:12;;;;;;;43.20;22.23;;;5.90;99.90;;;;;;4999868;28;39339;-81
2023/12/12 03:13:45;;;;;;;50.20;22.23;;;6.00;99.90;;;;;;4967544;28;37354;-81
2023/12/12 03:16:33;;;;;;;54.93;23.17;;;6.10;99.90;;;;;;4941407;28;37868;-82
2023/12/12 03:19:03;;;;;;;51.83;25.07;;;6.20;99.90;;;;;;4977118;28;38663;-81
2023/12/12 03:21:31;;;;;;;62.63;26.50;;;6.20;99.90;;;;;;4932847;28;49378;-82
2023/12/12 03:24:08;;;;;;;43.57;21.03;;;6.10;99.90;;;;;;4980564;28;39401;-82
2023/12/12 03:26:36;;;;;;;32.57;17.10;;;6.10;99.90;;;;;;4929536;28;39630;-81
2023/12/12 03:29:05;;;;;;;45.83;22.17;;;6.20;99.90;;;;;;4981122;28;38513;-82
2023/12/12 03:31:45;;;;;;;49.07;24.73;;;6.10;99.90;;;;;;4964163;28;39179;-82
2023/12/12 03:34:16;;;;;;;35.90;18.00;;;6.10;99.90;;;;;;4967916;28;38176;-80
2023/12/12 03:36:50;;;;;;;48.40;24.00;;;6.10;99.90;;;;;;4994971;28;38898;-81
2023/12/12 03:39:19;;;;;;;45.00;20.80;;;6.00;99.90;;;;;;4960548;28;39822;-82
2023/12/12 03:41:46;;;;;;;65.10;28.03;;;6.00;99.90;;;;;;4970301;28;38970;-82
2023/12/12 03:44:18;;;;;;;39.37;19.47;;;5.90;99.90;;;;;;4965551;28;38590;-83
2023/12/12 03:46:51;;;;;;;50.07;22.03;;;6.00;99.90;;;;;;4985190;28;37060;-82
2023/12/12 03:49:22;;;;;;;38.63;20.63;;;6.00;99.90;;;;;;4956941;28;38268;-82
2023/12/12 03:51:51;;;;;;;47.50;23.60;;;6.00;99.90;;;;;;4961550;28;40053;-82
2023/12/12 03:54:22;;;;;;;42.95;21.85;;;6.10;99.90;;;;;;4972322;28;38930;-82
2023/12/12 03:57:03;;;;;;;41.65;19.58;;;6.10;99.90;;;;;;4981321;28;37961;-81
2023/12/12 03:59:32;;;;;;;33.23;17.90;;;6.20;99.90;;;;;;4945881;28;48362;-81
2023/12/12 04:02:14;;;;;;;43.07;21.53;;;6.30;99.90;;;;;;4996238;28;40315;-81
2023/12/12 04:04:52;;;;;;;37.73;18.13;;;6.30;99.90;;;;;;4970622;28;50101;-83
2023/12/12 04:07:22;;;;;;;36.67;18.20;;;6.40;99.90;;;;;;4958278;28;37949;-81
2023/12/12 04:09:51;;;;;;;50.60;24.23;;;6.30;99.90;;;;;;4985155;28;38189;-81
2023/12/12 04:12:19;;;;;;;42.00;19.17;;;6.40;99.90;;;;;;4972682;28;40367;-82
2023/12/12 04:14:53;;;;;;;;;;;6.40;99.90;;;;;;4977578;28;40170;-83
2023/12/12 04:17:22;;;;;;;45.93;22.13;;;6.40;99.90;;;;;;4944391;28;38384;-83
2023/12/12 04:19:54;;;;;;;53.53;22.23;;;6.40;99.90;;;;;;5008248;28;40266;-82
2023/12/12 04:23:01;;;;;;;46.87;19.63;;;6.50;99.90;;;;;;4979973;28;39580;-82
2023/12/12 04:25:59;;;;;;;42.87;18.87;;;6.50;99.90;;;;;;4959477;28;48771;-81
2023/12/12 04:28:39;;;;;;;50.75;21.33;;;6.50;99.90;;;;;;4960876;28;50228;-82
2023/12/12 04:31:22;;;;;;;56.37;24.93;;;6.60;99.90;;;;;;4974046;28;39174;-81
2023/12/12 04:34:02;;;;;;;74.73;28.53;;;6.70;99.90;;;;;;4976527;28;39620;-81
2023/12/12 04:36:34;;;;;;;62.13;26.87;;;6.80;99.90;;;;;;4976516;28;49323;-81
2023/12/12 04:39:19;;;;;;;61.53;27.67;;;6.90;99.90;;;;;;4974543;28;38313;-82
2023/12/12 04:42:02;;;;;;;101.03;38.83;;;6.90;99.90;;;;;;4975466;28;47638;-82
2023/12/12 04:44:40;;;;;;;74.00;29.70;;;7.00;99.90;;;;;;4981552;28;49968;-82
2023/12/12 04:47:12;;;;;;;80.67;30.30;;;7.00;99.90;;;;;;4966928;28;38642;-82
2023/12/12 04:49:47;;;;;;;99.67;36.17;;;7.00;99.90;;;;;;4972884;28;38053;-81
2023/12/12 04:52:37;;;;;;;57.90;23.20;;;7.00;99.90;;;;;;4994082;28;41549;-82
2023/12/12 04:55:12;;;;;;;58.47;24.27;;;7.10;99.90;;;;;;4969561;28;41854;-82
2023/12/12 04:57:44;;;;;;;75.10;26.70;;;7.10;99.90;;;;;;4980845;28;50306;-81
2023/12/12 05:00:23;;;;;;;70.37;25.87;;;7.10;99.90;;;;;;4976400;28;38637;-82
2023/12/12 05:02:57;;;;;;;71.87;29.47;;;7.20;99.90;;;;;;4970376;28;49876;-82
2023/12/12 05:05:30;;;;;;;77.37;28.00;;;7.30;99.90;;;;;;4974464;28;39624;-81
2023/12/12 05:08:11;;;;;;;51.50;21.20;;;7.30;99.90;;;;;;4976810;28;40098;-82
2023/12/12 05:10:55;;;;;;;70.93;24.67;;;7.40;99.90;;;;;;4965594;28;37852;-82
2023/12/12 05:13:33;;;;;;;53.43;22.97;;;7.40;99.90;;;;;;4959096;28;39358;-81
2023/12/12 05:16:05;;;;;;;68.70;24.47;;;7.40;99.90;;;;;;5097407;23;38583;-82
2023/12/12 05:19:16;;;;;;;54.67;21.10;;;7.40;99.90;;;;;;4950267;28;39193;-82
2023/12/12 05:22:24;;;;;;;81.10;27.90;;;7.50;99.90;;;;;;4970210;23;49503;-81
2023/12/12 05:25:39;;;;;;;84.77;27.83;;;7.50;99.90;;;;;;4953030;28;39659;-80
2023/12/12 05:28:49;;;;;;;58.43;23.33;;;7.60;99.90;;;;;;4922596;28;50962;-82
2023/12/12 05:35:08;;;;;;;58.17;23.53;;;7.70;99.90;;;;;;5393971;23;20062;-81
2023/12/12 05:38:29;;;;;;;53.07;22.60;;;7.70;99.90;;;;;;5097800;23;50016;-83
2023/12/12 05:44:33;;;;;;;74.40;33.77;;;7.80;99.90;;;;;;5002648;23;20050;-81
2023/12/12 05:47:21;;;;;;;47.43;21.00;;;7.80;99.90;;;;;;4922908;28;38830;-81
2023/12/12 05:50:46;;;;;;;;;;;;;;;;;;;;;
2023/12/12 05:53:45;;;;;;;66.50;27.47;;;7.80;99.90;;;;;;4947489;28;47997;-81
2023/12/12 05:56:34;;;;;;;68.57;28.40;;;7.90;99.90;;;;;;5009833;23;38999;-83
2023/12/12 05:59:17;;;;;;;71.40;29.30;;;7.90;99.90;;;;;;4916498;28;37240;-80
2023/12/12 06:11:09;;;;;;;43.63;22.03;;;8.00;99.90;;;;;;4954928;28;20047;-81
2023/12/12 06:13:56;;;;;;;62.33;26.17;;;8.00;99.90;;;;;;5008675;23;20024;-81
2023/12/12 06:16:40;;;;;;;58.63;27.67;;;8.00;99.90;;;;;;4979117;28;38621;-81
2023/12/12 06:19:18;;;;;;;74.60;29.83;;;8.00;99.90;;;;;;4970612;28;38997;-81
2023/12/12 06:21:46;;;;;;;44.40;21.13;;;8.10;99.90;;;;;;4976024;28;38618;-81
2023/12/12 06:24:14;;;;;;;46.37;23.77;;;8.10;99.90;;;;;;4966768;28;40309;-80
2023/12/12 06:26:53;;;;;;;70.47;28.27;;;8.10;99.90;;;;;;4991225;28;39493;-81
2023/12/12 06:29:25;;;;;;;56.37;26.43;;;8.20;99.90;;;;;;4951446;28;37903;-83
2023/12/12 06:32:02;;;;;;;57.60;22.30;;;8.10;99.90;;;;;;4980632;28;38158;-82
2023/12/12 06:34:29;;;;;;;54.60;20.43;;;8.20;99.90;;;;;;4957777;28;49785;-82
2023/12/12 06:37:21;;;;;;;54.47;19.63;;;8.20;99.90;;;;;;4964519;28;39326;-82
2023/12/12 06:39:48;;;;;;;63.53;20.90;;;8.20;99.90;;;;;;4976186;28;49213;-82
2023/12/12 06:43:04;;;;;;;63.37;20.50;;;8.20;99.90;;;;;;4958515;28;37433;-82
2023/12/12 06:45:33;;;;;;;50.03;19.47;;;8.30;99.90;;;;;;5392446;23;50114;-81
2023/12/12 06:48:00;;;;;;;68.50;22.03;;;8.30;99.90;;;;;;4941361;28;38420;-81
2023/12/12 06:50:27;;;;;;;65.50;22.13;;;8.40;99.90;;;;;;5148700;23;40475;-82
2023/12/12 06:52:53;;;;;;;89.20;29.57;;;8.30;99.90;;;;;;5152011;23;39823;-81
2023/12/12 06:55:20;;;;;;;64.93;24.87;;;8.30;99.90;;;;;;4959479;28;39365;-82
2023/12/12 06:57:46;;;;;;;54.37;21.17;;;8.30;99.90;;;;;;4954672;28;38984;-81
2023/12/12 07:00:15;;;;;;;56.30;23.50;;;8.20;99.90;;;;;;4953676;28;38729;-81
2023/12/12 07:02:42;;;;;;;61.23;23.83;;;8.30;99.90;;;;;;4967800;28;37793;-82
2023/12/12 07:05:08;;;;;;;43.80;20.10;;;8.30;99.90;;;;;;5369842;23;38039;-80
2023/12/12 07:07:35;;;;;;;66.00;23.40;;;8.30;99.90;;;;;;4978383;28;39924;-82
2023/12/12 07:10:25;;;;;;;52.83;21.70;;;8.30;99.90;;;;;;4963407;28;38510;-81
2023/12/12 07:12:55;;;;;;;79.67;25.77;;;8.30;99.90;;;;;;4962079;28;48340;-82
2023/12/12 07:16:08;;;;;;;;;;;;;;;;;;;;;
2023/12/12 07:18:53;;;;;;;95.60;26.47;;;8.20;99.90;;;;;;4877710;29;49865;-81
2023/12/12 07:21:22;;;;;;;65.10;18.53;;;8.20;99.90;;;;;;4880337;29;40116;-81
2023/12/12 07:24:14;;;;;;;48.77;17.20;;;8.20;99.90;;;;;;4894436;29;37233;-82
2023/12/12 07:26:45;;;;;;;52.30;18.73;;;8.20;99.90;;;;;;4830305;29;50201;-81
2023/12/12 07:29:19;;;;;;;67.13;19.88;;;8.30;99.90;;;;;;4904130;29;40271;-82
2023/12/12 07:34:35;;;;;;;53.37;20.60;;;8.30;99.90;;;;;;5142487;23;20047;-80
2023/12/12 07:37:01;;;;;;;67.77;22.30;;;8.30;99.90;;;;;;4983191;28;38912;-82
2023/12/12 07:39:43;;;;;;;61.13;18.87;;;8.30;99.90;;;;;;4993370;28;42066;-81
2023/12/12 07:42:11;;;;;;;51.08;16.75;;;8.30;99.90;;;;;;4994938;28;37426;-82
2023/12/12 07:44:37;;;;;;;59.83;18.33;;;8.30;99.90;;;;;;4991452;28;38135;-82
2023/12/12 07:47:04;;;;;;;55.00;16.43;;;8.40;99.90;;;;;;4975445;28;39017;-81
2023/12/12 07:49:30;;;;;;;44.27;15.50;;;8.40;99.90;;;;;;4981629;28;38739;-81
2023/12/12 07:52:12;;;;;;;53.03;17.33;;;8.50;99.90;;;;;;4959878;28;37998;-81
2023/12/12 07:54:39;;;;;;;39.45;14.43;;;8.40;99.90;;;;;;4980828;28;48676;-82
2023/12/12 07:57:31;;;;;;;59.90;17.87;;;8.50;99.90;;;;;;4982710;28;38900;-83
2023/12/12 07:59:59;;;;;;;47.25;15.48;;;8.60;99.90;;;;;;4944881;28;40341;-81
2023/12/12 08:02:25;;;;;;;58.53;16.93;;;8.60;99.90;;;;;;4971949;28;39404;-81
2023/12/12 08:04:53;;;;;;;55.60;14.30;;;8.60;99.90;;;;;;5014869;28;37147;-81
2023/12/12 08:07:21;;;;;;;62.87;16.47;;;8.60;99.90;;;;;;4992902;28;39287;-81
2023/12/12 08:09:47;;;;;;;55.57;14.50;;;8.70;99.90;;;;;;4996204;28;40315;-81
2023/12/12 08:12:13;;;;;;;67.67;15.27;;;8.70;99.90;;;;;;4988470;28;37785;-81
2023/12/12 08:14:40;;;;;;;54.07;14.03;;;8.70;99.90;;;;;;4993165;28;36630;-80
2023/12/12 08:17:07;;;;;;;47.37;12.07;;;8.70;99.90;;;;;;4998574;28;39860;-80
2023/12/12 08:19:33;;;;;;;42.77;12.17;;;8.80;99.90;;;;;;5009561;28;39297;-80
2023/12/12 08:22:01;;;;;;;48.73;12.57;;;8.90;99.90;;;;;;5003876;28;38955;-80
2023/12/12 08:24:28;;;;;;;49.73;14.53;;;8.90;99.90;;;;;;4987341;28;48930;-80
2023/12/12 08:26:55;;;;;;;52.77;14.87;;;9.00;99.90;;;;;;5005121;28;38510;-80
2023/12/12 08:29:21;;;;;;;54.60;14.30;;;9.00;99.90;;;;;;4983031;28;37535;-81
2023/12/12 08:31:52;;;;;;;41.70;14.07;;;9.00;99.90;;;;;;5006698;28;37416;-81
2023/12/12 08:34:20;;;;;;;57.47;16.77;;;9.00;99.90;;;;;;4991751;28;36514;-80
2023/12/12 08:36:46;;;;;;;57.80;16.47;;;9.00;99.90;;;;;;4987467;28;38867;-80
2023/12/12 08:39:14;;;;;;;58.10;14.37;;;9.00;99.90;;;;;;4978684;28;39283;-81
2023/12/12 08:41:40;;;;;;;59.40;13.77;;;9.00;99.90;;;;;;4994503;28;40033;-79
2023/12/12 08:44:07;;;;;;;39.43;13.43;;;9.10;99.90;;;;;;4990755;28;36821;-80
2023/12/12 08:46:34;;;;;;;46.70;13.30;;;9.10;99.90;;;;;;4994272;28;37983;-81
2023/12/12 08:49:06;;;;;;;61.10;15.10;;;9.10;99.90;;;;;;4985858;28;37915;-81
2023/12/12 08:51:34;;;;;;;48.90;12.80;;;9.10;99.90;;;;;;4980749;28;47169;-81
2023/12/12 08:54:02;;;;;;;56.77;13.70;;;9.10;99.90;;;;;;4986139;28;36639;-81
2023/12/12 08:56:29;;;;;;;44.50;11.57;;;9.10;99.90;;;;;;4981709;28;48117;-80
2023/12/12 08:58:55;;;;;;;39.43;12.00;;;9.10;99.90;;;;;;4978126;28;39555;-79
2023/12/12 09:01:21;;;;;;;45.47;12.60;;;9.10;99.90;;;;;;4984205;28;38309;-80
2023/12/12 09:03:47;;;;;;;60.60;14.30;;;9.10;99.90;;;;;;4983547;28;37165;-80
2023/12/12 09:06:13;;;;;;;42.87;12.33;;;9.20;99.90;;;;;;5007298;28;39135;-81
2023/12/12 09:08:42;;;;;;;55.60;13.30;;;9.20;99.90;;;;;;5003897;28;38190;-81
2023/12/12 09:11:21;;;;;;;43.67;12.80;;;9.20;99.90;;;;;;4995066;28;38117;-82
2023/12/12 09:13:47;;;;;;;28.60;10.00;;;9.20;99.90;;;;;;5000390;28;37261;-81
2023/12/12 09:17:05;;;;;;;47.80;12.30;;;9.20;99.90;;;;;;5001113;28;38632;-81
2023/12/12 09:19:38;;;;;;;35.70;10.40;;;9.30;99.90;;;;;;5008845;28;50405;-81
2023/12/12 09:22:04;;;;;;;37.38;11.68;;;9.30;99.90;;;;;;4996273;28;38686;-81
2023/12/12 09:24:33;;;;;;;34.53;10.20;;;9.30;99.90;;;;;;5000553;28;36423;-82
2023/12/12 09:27:06;;;;;;;43.77;11.87;;;9.30;99.90;;;;;;5016175;28;41634;-81
2023/12/12 09:29:42;;;;;;;44.72;9.82;;;9.40;99.90;;;;;;5011168;28;49299;-81
2023/12/12 09:32:08;;;;;;;36.77;10.03;;;9.40;99.90;;;;;;5004935;28;37540;-81
2023/12/12 09:34:35;;;;;;;43.67;11.50;;;9.40;99.90;;;;;;5013389;28;36294;-80
2023/12/12 09:37:01;;;;;;;45.47;10.07;;;9.50;99.90;;;;;;5016181;28;40241;-82
2023/12/12 09:39:27;;;;;;;35.57;9.27;;;9.60;99.90;;;;;;5008630;28;49023;-80
2023/12/12 09:41:55;;;;;;;32.43;9.17;;;9.60;99.90;;;;;;4985979;28;39251;-81
2023/12/12 09:44:22;;;;;;;37.87;9.53;;;9.70;99.90;;;;;;4998381;28;39522;-80
2023/12/12 09:46:49;;;;;;;31.30;9.03;;;9.70;99.90;;;;;;5001537;28;38872;-81
2023/12/12 09:49:16;;;;;;;38.97;9.90;;;9.70;99.90;;;;;;5000224;28;38488;-81
2023/12/12 09:51:43;;;;;;;30.77;9.07;;;9.70;99.90;;;;;;5003448;28;38116;-82
2023/12/12 09:54:18;;;;;;;37.27;9.30;;;9.80;99.90;;;;;;5011933;28;37189;-79
2023/12/12 09:56:54;;;;;;;29.43;9.43;;;9.80;99.90;;;;;;5017235;28;39374;-80
2023/12/12 09:59:26;;;;;;;32.47;9.03;;;9.80;99.90;;;;;;4998387;28;38823;-81
2023/12/12 10:02:23;;;;;;;32.22;9.20;;;9.80;99.90;;;;;;4999556;28;37021;-81
2023/12/12 10:05:21;;;;;;;24.63;8.77;;;9.90;99.90;;;;;;4995342;28;49059;-80
2023/12/12 10:07:53;;;;;;;28.87;9.83;;;9.90;99.90;;;;;;5018030;28;50236;-81
2023/12/12 10:10:19;;;;;;;37.97;10.83;;;9.90;99.90;;;;;;5017356;28;40525;-81
2023/12/12 10:12:47;;;;;;;43.03;11.37;;;9.90;99.90;;;;;;5006482;28;38073;-81
2023/12/12 10:15:33;;;;;;;33.83;11.87;;;10.00;99.90;;;;;;5007096;28;37992;-81
2023/12/12 10:18:04;;;;;;;33.67;12.00;;;10.00;99.90;;;;;;5001055;28;39046;-81
2023/12/12 10:21:14;;;;;;;44.63;13.73;;;10.00;99.90;;;;;;5000426;28;47601;-81
2023/12/12 10:23:49;;;;;;;40.13;14.53;;;10.10;99.90;;;;;;4980044;28;48610;-81
2023/12/12 10:26:33;;;;;;;37.87;15.60;;;10.10;99.90;;;;;;4999903;28;37902;-81
2023/12/12 10:29:00;;;;;;;44.73;17.07;;;10.10;99.90;;;;;;4998185;28;39065;-83
2023/12/12 10:31:35;;;;;;;43.27;17.77;;;10.10;99.90;;;;;;4998379;28;49065;-81
2023/12/12 10:34:38;;;;;;;46.60;18.17;;;10.10;99.90;;;;;;5003047;28;38597;-82
2023/12/12 10:37:04;;;;;;;43.08;18.45;;;10.20;99.90;;;;;;5020178;28;50292;-81
2023/12/12 10:39:43;;;;;;;49.77;19.43;;;10.20;99.90;;;;;;5020960;28;40313;-82
2023/12/12 10:42:15;;;;;;;45.40;19.30;;;10.20;99.90;;;;;;5019792;28;38629;-80
2023/12/12 10:44:59;;;;;;;49.92;20.55;;;10.20;99.90;;;;;;5005039;28;38993;-81
2023/12/12 10:47:25;;;;;;;47.47;19.50;;;10.20;99.90;;;;;;5001573;28;38982;-81
2023/12/12 10:50:02;;;;;;;43.73;20.40;;;10.20;99.90;;;;;;4985586;28;39379;-81
2023/12/12 10:52:33;;;;;;;48.80;20.27;;;10.30;99.90;;;;;;4997286;28;38818;-82
2023/12/12 10:55:00;;;;;;;44.33;18.80;;;10.30;99.90;;;;;;5004347;28;38583;-82
2023/12/12 10:57:29;;;;;;;40.77;19.00;;;10.30;99.90;;;;;;5020727;28;39061;-81
2023/12/12 11:00:12;;;;;;;45.23;18.30;;;10.30;99.90;;;;;;5021175;28;40056;-81
2023/12/12 11:03:04;;;;;;;43.22;18.10;;;10.30;99.90;;;;;;5021132;28;39626;-82
2023/12/12 11:05:32;;;;;;;45.90;20.08;;;10.30;99.90;;;;;;5003530;28;48602;-81
2023/12/12 11:07:58;;;;;;;46.43;19.70;;;10.40;99.90;;;;;;5020619;28;39042;-81
2023/12/12 11:10:49;;;;;;;48.20;21.40;;;10.40;99.90;;;;;;5007513;28;38792;-81
2023/12/12 11:13:17;;;;;;;41.77;21.77;;;10.50;99.90;;;;;;5011151;28;40334;-81
2023/12/12 11:15:47;;;;;;;36.80;20.87;;;10.50;99.90;;;;;;5003866;28;39042;-80
2023/12/12 11:18:15;;;;;;;48.67;22.97;;;10.50;99.90;;;;;;5003359;28;37686;-80
2023/12/12 11:24:15;;;;;;;45.37;24.23;;;10.60;99.90;;;;;;5003585;23;20054;-81
2023/12/12 11:26:42;;;;;;;44.93;23.93;;;10.50;99.90;;;;;;4980197;28;49965;-82
2023/12/12 11:29:26;;;;;;;50.20;25.17;;;10.60;99.90;;;;;;4963336;28;37857;-80
2023/12/12 11:32:21;;;;;;;42.10;23.47;;;10.60;99.90;;;;;;4963142;28;39281;-80
2023/12/12 11:34:59;;;;;;;45.97;25.70;;;10.60;99.90;;;;;;4960519;28;48319;-80
2023/12/12 11:37:44;;;;;;;44.40;24.80;;;10.60;99.90;;;;;;4960868;28;37579;-81
2023/12/12 11:40:19;;;;;;;49.57;25.67;;;10.60;99.90;;;;;;4976455;28;37375;-80
2023/12/12 11:42:46;;;;;;;51.60;25.43;;;10.60;99.90;;;;;;4963377;28;38842;-81
2023/12/12 11:45:31;;;;;;;45.50;24.90;;;10.60;99.90;;;;;;4965588;28;38709;-81
2023/12/12 11:48:07;;;;;;;43.20;24.83;;;10.60;99.90;;;;;;4954709;28;38569;-82
2023/12/12 11:50:34;;;;;;;54.20;27.50;;;10.60;99.90;;;;;;4980377;28;49892;-82
2023/12/12 11:53:45;;;;;;;46.57;25.30;;;10.60;99.90;;;;;;4999276;28;40369;-81
2023/12/12 11:56:16;;;;;;;48.47;26.13;;;10.70;99.90;;;;;;4934344;28;48559;-82
2023/12/12 11:58:52;;;;;;;44.60;25.90;;;10.70;99.90;;;;;;4990693;28;39833;-81
2023/12/12 12:01:23;;;;;;;41.50;25.27;;;10.70;99.90;;;;;;4981542;28;37270;-81
2023/12/12 12:03:56;;;;;;;41.43;25.73;;;10.70;99.90;;;;;;4963961;28;37686;-82
2023/12/12 12:06:25;;;;;;;39.40;23.97;;;10.80;99.90;;;;;;5214944;23;38850;-82
2023/12/12 12:09:09;;;;;;;39.07;23.90;;;10.80;99.90;;;;;;4986592;28;39125;-81
2023/12/12 12:11:47;;;;;;;34.67;22.13;;;10.80;99.90;;;;;;5279421;23;47857;-81
2023/12/12 12:14:17;;;;;;;36.03;22.53;;;10.80;99.90;;;;;;4959933;28;39278;-82
2023/12/12 12:16:47;;;;;;;34.17;22.50;;;10.90;99.90;;;;;;4950812;28;37889;-82
2023/12/12 12:19:37;;;;;;;41.70;22.23;;;10.80;99.90;;;;;;4944772;28;39060;-81
2023/12/12 12:22:24;;;;;;;47.03;22.90;;;10.80;99.90;;;;;;4958311;28;38060;-81
2023/12/12 12:24:58;;;;;;;40.03;20.80;;;10.80;99.90;;;;;;4955905;28;38116;-82
2023/12/12 12:27:24;;;;;;;34.97;20.40;;;10.80;99.90;;;;;;4968828;28;39178;-80
2023/12/12 12:30:13;;;;;;;32.40;19.53;;;10.80;99.90;;;;;;4997737;28;39155;-81
2023/12/12 12:32:39;;;;;;;30.83;18.60;;;10.80;99.90;;;;;;4970915;28;48367;-80
2023/12/12 12:35:07;;;;;;;29.93;19.97;;;10.80;99.90;;;;;;4970939;28;40176;-80
2023/12/12 12:37:35;;;;;;;26.57;17.97;;;10.80;99.90;;;;;;4980969;28;40395;-81
2023/12/12 12:40:04;;;;;;;34.03;19.00;;;10.80;99.90;;;;;;4961185;28;38713;-81
2023/12/12 12:42:34;;;;;;;29.20;17.80;;;10.80;99.90;;;;;;4959162;28;48568;-80
2023/12/12 12:45:05;;;;;;;30.67;16.70;;;10.80;99.90;;;;;;4974449;28;40288;-82
2023/12/12 12:47:34;;;;;;;26.80;16.57;;;10.80;99.90;;;;;;4960290;28;48076;-80
2023/12/12 12:50:03;;;;;;;27.83;17.73;;;10.80;99.90;;;;;;4992464;28;40131;-81
2023/12/12 12:52:39;;;;;;;25.23;17.00;;;10.80;99.90;;;;;;4969475;28;36835;-82
2023/12/12 12:55:06;;;;;;;30.23;18.37;;;10.80;99.90;;;;;;4976366;28;39432;-81
2023/12/12 12:57:43;;;;;;;25.83;16.97;;;10.80;99.90;;;;;;4979105;28;50292;-82
2023/12/12 13:00:16;;;;;;;28.53;18.97;;;10.80;99.90;;;;;;4971234;28;38909;-79
2023/12/12 13:02:44;;;;;;;26.10;17.73;;;10.80;99.90;;;;;;4993428;28;37412;-80
2023/12/12 13:05:11;;;;;;;26.27;17.90;;;10.80;99.90;;;;;;4977562;28;39566;-80
2023/12/12 13:07:37;;;;;;;26.23;18.53;;;10.80;99.90;;;;;;4994627;28;38243;-80
2023/12/12 13:10:06;;;;;;;21.70;16.97;;;10.90;99.90;;;;;;4994644;28;39013;-80
2023/12/12 13:12:35;;;;;;;22.88;15.73;;;11.00;99.90;;;;;;4977782;28;47681;-79
2023/12/12 13:15:03;;;;;;;24.98;17.75;;;11.00;99.90;;;;;;4987931;28;38975;-80
2023/12/12 13:17:29;;;;;;;24.23;16.70;;;11.10;99.90;;;;;;4987534;28;49070;-80
2023/12/12 13:19:56;;;;;;;26.67;17.97;;;11.10;99.90;;;;;;5009420;28;37780;-81
2023/12/12 13:22:22;;;;;;;25.87;17.27;;;11.20;99.90;;;;;;4979910;28;36855;-80
2023/12/12 13:24:49;;;;;;;23.33;18.00;;;11.20;99.90;;;;;;4993746;28;39698;-79
2023/12/12 13:27:15;;;;;;;22.67;17.40;;;11.20;99.90;;;;;;4993333;28;39365;-80
2023/12/12 13:29:41;;;;;;;22.60;18.40;;;11.20;99.90;;;;;;4991178;28;38913;-80
2023/12/12 13:32:08;;;;;;;21.57;17.43;;;11.20;99.90;;;;;;4975298;28;38255;-80
2023/12/12 13:34:34;;;;;;;25.23;17.30;;;11.20;99.90;;;;;;4979527;28;40189;-80
2023/12/12 13:37:00;;;;;;;28.03;17.80;;;11.20;99.90;;;;;;4980175;28;38351;-81
2023/12/12 13:39:26;;;;;;;25.37;18.10;;;11.20;99.90;;;;;;4979780;28;37599;-81